KDSV/DSV METAR and TAF weather

Enter ICAO airport designator
Station Type Date Time Source
KDSV METAR 2019/05/20 09:54 UTC NOAA

KDSV 200954Z AUTO 13004KT 10SM BKN065 OVC080 18/16 A2975 RMK AO2 RAB17E31 SLP079 P0000 T01780156


Station Type Date Time Source
KDSV Decoded METAR 2019/05/20 09:54 UTC NOAA

DANSVILLE MUNICIPAL AIRPORT, NY, United States (KDSV) 42-34N 077-43W 198M
May 20, 2019 - 05:54 AM EDT / 2019.05.20 0954 UTC
Wind: from the SE (130 degrees) at 5 MPH (4 KT):0
Visibility: 10 mile(s):0
Sky conditions: overcast
Precipitation last hour: A trace
Temperature: 64.0 F (17.8 C)
Dew Point: 60.1 F (15.6 C)
Relative Humidity: 86%
Pressure (altimeter): 29.75 in. Hg (1007 hPa)
ob: KDSV 200954Z AUTO 13004KT 10SM BKN065 OVC080 18/16 A2975 RMK AO2 RAB17E31 SLP079 P0000 T01780156
cycle: 10

Station Type Date Time Source
KDSV TAF UTC NOAA

Error!

Example: see airport list